sensor_id;sensor_type;location;lat;lon;timestamp;P1;durP1;ratioP1;P2;durP2;ratioP2
45103;SDS011;30865;51.288;4.572;2023-01-01T00:01:39;553.95;;;384.08;;
45103;SDS011;30865;51.288;4.572;2023-01-01T00:04:06;547.72;;;387.15;;
45103;SDS011;30865;51.288;4.572;2023-01-01T00:06:34;570.90;;;390.00;;
45103;SDS011;30865;51.288;4.572;2023-01-01T00:09:00;586.45;;;407.88;;
45103;SDS011;30865;51.288;4.572;2023-01-01T00:11:45;541.45;;;374.52;;
45103;SDS011;30865;51.288;4.572;2023-01-01T00:14:10;564.17;;;394.45;;
45103;SDS011;30865;51.288;4.572;2023-01-01T00:16:36;580.63;;;399.98;;
45103;SDS011;30865;51.288;4.572;2023-01-01T00:19:01;547.25;;;382.10;;
45103;SDS011;30865;51.288;4.572;2023-01-01T00:21:27;549.83;;;385.42;;
45103;SDS011;30865;51.288;4.572;2023-01-01T00:23:53;555.15;;;390.05;;
45103;SDS011;30865;51.288;4.572;2023-01-01T00:26:18;538.00;;;374.48;;
45103;SDS011;30865;51.288;4.572;2023-01-01T00:28:44;560.03;;;389.98;;
45103;SDS011;30865;51.288;4.572;2023-01-01T00:31:14;554.00;;;385.23;;
45103;SDS011;30865;51.288;4.572;2023-01-01T00:33:42;524.13;;;365.98;;
45103;SDS011;30865;51.288;4.572;2023-01-01T00:36:17;547.60;;;376.88;;
45103;SDS011;30865;51.288;4.572;2023-01-01T00:38:44;527.47;;;369.13;;
45103;SDS011;30865;51.288;4.572;2023-01-01T00:41:10;497.73;;;341.17;;
45103;SDS011;30865;51.288;4.572;2023-01-01T00:43:36;492.95;;;332.63;;
45103;SDS011;30865;51.288;4.572;2023-01-01T00:46:03;477.90;;;322.58;;
45103;SDS011;30865;51.288;4.572;2023-01-01T00:48:29;481.95;;;324.33;;
45103;SDS011;30865;51.288;4.572;2023-01-01T00:50:55;491.85;;;337.48;;
45103;SDS011;30865;51.288;4.572;2023-01-01T00:53:20;488.40;;;326.67;;
45103;SDS011;30865;51.288;4.572;2023-01-01T00:55:47;501.20;;;345.45;;
45103;SDS011;30865;51.288;4.572;2023-01-01T00:58:13;522.58;;;346.23;;
45103;SDS011;30865;51.288;4.572;2023-01-01T01:00:40;505.33;;;335.27;;
45103;SDS011;30865;51.288;4.572;2023-01-01T01:03:05;495.33;;;328.25;;
45103;SDS011;30865;51.288;4.572;2023-01-01T01:05:31;498.63;;;335.02;;
45103;SDS011;30865;51.288;4.572;2023-01-01T01:07:58;484.55;;;325.27;;
45103;SDS011;30865;51.288;4.572;2023-01-01T01:10:24;481.85;;;323.40;;
45103;SDS011;30865;51.288;4.572;2023-01-01T01:12:50;483.50;;;327.20;;
45103;SDS011;30865;51.288;4.572;2023-01-01T01:15:16;464.08;;;305.88;;
45103;SDS011;30865;51.288;4.572;2023-01-01T01:17:42;461.17;;;305.40;;
45103;SDS011;30865;51.288;4.572;2023-01-01T01:20:07;450.23;;;295.42;;
45103;SDS011;30865;51.288;4.572;2023-01-01T01:22:33;439.27;;;290.63;;
45103;SDS011;30865;51.288;4.572;2023-01-01T01:24:59;432.83;;;286.48;;
45103;SDS011;30865;51.288;4.572;2023-01-01T01:27:24;427.00;;;272.83;;
45103;SDS011;30865;51.288;4.572;2023-01-01T01:29:50;419.13;;;266.17;;
45103;SDS011;30865;51.288;4.572;2023-01-01T01:32:16;400.25;;;255.00;;
45103;SDS011;30865;51.288;4.572;2023-01-01T01:34:41;364.45;;;227.65;;
45103;SDS011;30865;51.288;4.572;2023-01-01T01:37:07;349.15;;;218.82;;
45103;SDS011;30865;51.288;4.572;2023-01-01T01:39:33;368.88;;;219.77;;
45103;SDS011;30865;51.288;4.572;2023-01-01T01:41:59;352.80;;;225.48;;
45103;SDS011;30865;51.288;4.572;2023-01-01T01:44:46;329.58;;;206.63;;
45103;SDS011;30865;51.288;4.572;2023-01-01T01:47:21;326.77;;;199.85;;
45103;SDS011;30865;51.288;4.572;2023-01-01T01:49:48;305.95;;;189.00;;
45103;SDS011;30865;51.288;4.572;2023-01-01T01:52:30;294.48;;;178.20;;
45103;SDS011;30865;51.288;4.572;2023-01-01T01:55:00;284.23;;;171.00;;
45103;SDS011;30865;51.288;4.572;2023-01-01T01:57:29;261.95;;;163.88;;
45103;SDS011;30865;51.288;4.572;2023-01-01T01:59:56;268.15;;;162.88;;
45103;SDS011;30865;51.288;4.572;2023-01-01T02:02:26;282.85;;;173.00;;
45103;SDS011;30865;51.288;4.572;2023-01-01T02:05:13;297.25;;;179.07;;
45103;SDS011;30865;51.288;4.572;2023-01-01T02:07:39;295.02;;;188.55;;
45103;SDS011;30865;51.288;4.572;2023-01-01T02:10:05;284.38;;;176.95;;
45103;SDS011;30865;51.288;4.572;2023-01-01T02:12:31;247.90;;;150.30;;
45103;SDS011;30865;51.288;4.572;2023-01-01T02:14:56;247.50;;;147.73;;
45103;SDS011;30865;51.288;4.572;2023-01-01T02:17:39;238.75;;;147.02;;
45103;SDS011;30865;51.288;4.572;2023-01-01T02:20:22;235.57;;;145.52;;
45103;SDS011;30865;51.288;4.572;2023-01-01T02:22:56;259.98;;;152.07;;
45103;SDS011;30865;51.288;4.572;2023-01-01T02:31:04;204.00;;;124.00;;
45103;SDS011;30865;51.288;4.572;2023-01-01T02:33:32;190.50;;;114.28;;
45103;SDS011;30865;51.288;4.572;2023-01-01T02:36:00;183.15;;;111.65;;
45103;SDS011;30865;51.288;4.572;2023-01-01T02:38:35;181.50;;;109.10;;
45103;SDS011;30865;51.288;4.572;2023-01-01T02:41:08;162.32;;;100.53;;
45103;SDS011;30865;51.288;4.572;2023-01-01T02:43:38;166.57;;;103.55;;
45103;SDS011;30865;51.288;4.572;2023-01-01T02:46:04;153.88;;;98.22;;
45103;SDS011;30865;51.288;4.572;2023-01-01T02:48:44;162.38;;;102.43;;
45103;SDS011;30865;51.288;4.572;2023-01-01T02:54:25;155.20;;;96.75;;
45103;SDS011;30865;51.288;4.572;2023-01-01T03:02:45;127.95;;;81.25;;
45103;SDS011;30865;51.288;4.572;2023-01-01T03:05:21;124.15;;;79.75;;
45103;SDS011;30865;51.288;4.572;2023-01-01T03:08:40;109.15;;;66.80;;
45103;SDS011;30865;51.288;4.572;2023-01-01T03:11:34;99.60;;;60.80;;
45103;SDS011;30865;51.288;4.572;2023-01-01T03:14:08;80.50;;;52.92;;
45103;SDS011;30865;51.288;4.572;2023-01-01T03:16:47;79.83;;;47.57;;
45103;SDS011;30865;51.288;4.572;2023-01-01T03:19:22;92.38;;;57.20;;
45103;SDS011;30865;51.288;4.572;2023-01-01T03:21:52;96.25;;;56.55;;
45103;SDS011;30865;51.288;4.572;2023-01-01T03:24:31;90.53;;;58.22;;
45103;SDS011;30865;51.288;4.572;2023-01-01T03:27:01;85.85;;;52.38;;
45103;SDS011;30865;51.288;4.572;2023-01-01T03:29:37;78.72;;;46.25;;
45103;SDS011;30865;51.288;4.572;2023-01-01T03:32:04;69.53;;;43.55;;
45103;SDS011;30865;51.288;4.572;2023-01-01T03:34:35;64.93;;;41.20;;
45103;SDS011;30865;51.288;4.572;2023-01-01T03:37:09;75.53;;;45.00;;
45103;SDS011;30865;51.288;4.572;2023-01-01T03:39:46;76.25;;;45.42;;
45103;SDS011;30865;51.288;4.572;2023-01-01T03:44:50;63.33;;;39.75;;
45103;SDS011;30865;51.288;4.572;2023-01-01T03:47:21;56.22;;;35.45;;
45103;SDS011;30865;51.288;4.572;2023-01-01T03:49:47;57.38;;;35.03;;
45103;SDS011;30865;51.288;4.572;2023-01-01T03:55:04;46.97;;;29.15;;
45103;SDS011;30865;51.288;4.572;2023-01-01T03:57:51;41.90;;;26.42;;
45103;SDS011;30865;51.288;4.572;2023-01-01T04:00:33;36.58;;;24.08;;
45103;SDS011;30865;51.288;4.572;2023-01-01T04:03:05;35.88;;;19.92;;
45103;SDS011;30865;51.288;4.572;2023-01-01T04:05:35;32.58;;;21.40;;
45103;SDS011;30865;51.288;4.572;2023-01-01T04:08:04;29.23;;;19.30;;
45103;SDS011;30865;51.288;4.572;2023-01-01T04:10:32;33.50;;;20.70;;
45103;SDS011;30865;51.288;4.572;2023-01-01T04:12:59;31.20;;;19.65;;
45103;SDS011;30865;51.288;4.572;2023-01-01T04:15:28;28.45;;;15.45;;
45103;SDS011;30865;51.288;4.572;2023-01-01T04:17:54;23.15;;;14.57;;
45103;SDS011;30865;51.288;4.572;2023-01-01T04:20:20;28.17;;;17.67;;
45103;SDS011;30865;51.288;4.572;2023-01-01T04:22:46;24.80;;;14.10;;
45103;SDS011;30865;51.288;4.572;2023-01-01T04:25:11;28.05;;;15.18;;
45103;SDS011;30865;51.288;4.572;2023-01-01T04:27:38;24.60;;;14.77;;
45103;SDS011;30865;51.288;4.572;2023-01-01T04:30:05;32.08;;;17.52;;
45103;SDS011;30865;51.288;4.572;2023-01-01T04:32:32;26.40;;;16.27;;
45103;SDS011;30865;51.288;4.572;2023-01-01T04:34:58;26.20;;;16.50;;
45103;SDS011;30865;51.288;4.572;2023-01-01T04:37:24;28.08;;;15.23;;
45103;SDS011;30865;51.288;4.572;2023-01-01T04:39:49;28.92;;;17.50;;
45103;SDS011;30865;51.288;4.572;2023-01-01T04:42:15;28.63;;;16.23;;
45103;SDS011;30865;51.288;4.572;2023-01-01T04:44:41;27.88;;;16.23;;
45103;SDS011;30865;51.288;4.572;2023-01-01T04:47:06;28.58;;;16.77;;
45103;SDS011;30865;51.288;4.572;2023-01-01T04:49:32;31.17;;;18.42;;
45103;SDS011;30865;51.288;4.572;2023-01-01T04:51:58;30.83;;;19.52;;
45103;SDS011;30865;51.288;4.572;2023-01-01T04:54:23;37.67;;;22.17;;
45103;SDS011;30865;51.288;4.572;2023-01-01T04:56:49;33.58;;;20.10;;
45103;SDS011;30865;51.288;4.572;2023-01-01T04:59:14;26.88;;;17.48;;
45103;SDS011;30865;51.288;4.572;2023-01-01T05:01:40;35.03;;;21.80;;
45103;SDS011;30865;51.288;4.572;2023-01-01T05:04:05;40.72;;;22.30;;
45103;SDS011;30865;51.288;4.572;2023-01-01T05:06:31;33.22;;;21.13;;
45103;SDS011;30865;51.288;4.572;2023-01-01T05:08:56;38.83;;;21.88;;
45103;SDS011;30865;51.288;4.572;2023-01-01T05:11:24;36.92;;;21.10;;
45103;SDS011;30865;51.288;4.572;2023-01-01T05:13:54;38.60;;;21.98;;
45103;SDS011;30865;51.288;4.572;2023-01-01T05:16:23;32.28;;;20.95;;
45103;SDS011;30865;51.288;4.572;2023-01-01T05:18:53;38.45;;;22.75;;
45103;SDS011;30865;51.288;4.572;2023-01-01T05:21:40;35.08;;;20.83;;
45103;SDS011;30865;51.288;4.572;2023-01-01T05:24:06;32.58;;;19.83;;
45103;SDS011;30865;51.288;4.572;2023-01-01T05:26:34;37.28;;;22.35;;
45103;SDS011;30865;51.288;4.572;2023-01-01T05:29:02;33.83;;;19.98;;
45103;SDS011;30865;51.288;4.572;2023-01-01T05:31:29;40.33;;;25.65;;
45103;SDS011;30865;51.288;4.572;2023-01-01T05:33:56;41.58;;;24.85;;
45103;SDS011;30865;51.288;4.572;2023-01-01T05:36:23;51.13;;;27.63;;
45103;SDS011;30865;51.288;4.572;2023-01-01T05:38:53;45.38;;;25.85;;
45103;SDS011;30865;51.288;4.572;2023-01-01T05:41:20;43.53;;;27.10;;
45103;SDS011;30865;51.288;4.572;2023-01-01T05:43:46;48.17;;;26.85;;
45103;SDS011;30865;51.288;4.572;2023-01-01T05:46:13;43.38;;;24.58;;
45103;SDS011;30865;51.288;4.572;2023-01-01T05:48:41;37.28;;;22.88;;
45103;SDS011;30865;51.288;4.572;2023-01-01T05:51:08;33.33;;;20.45;;
45103;SDS011;30865;51.288;4.572;2023-01-01T05:53:38;30.30;;;19.40;;
45103;SDS011;30865;51.288;4.572;2023-01-01T05:56:04;31.55;;;18.30;;
45103;SDS011;30865;51.288;4.572;2023-01-01T05:58:31;31.27;;;19.13;;
45103;SDS011;30865;51.288;4.572;2023-01-01T06:01:12;31.35;;;20.40;;
45103;SDS011;30865;51.288;4.572;2023-01-01T06:03:38;35.97;;;22.13;;
45103;SDS011;30865;51.288;4.572;2023-01-01T06:06:05;35.45;;;21.10;;
45103;SDS011;30865;51.288;4.572;2023-01-01T06:08:32;35.08;;;20.30;;
45103;SDS011;30865;51.288;4.572;2023-01-01T06:10:59;33.92;;;20.05;;
45103;SDS011;30865;51.288;4.572;2023-01-01T06:13:29;30.90;;;19.23;;
45103;SDS011;30865;51.288;4.572;2023-01-01T06:15:55;30.15;;;18.92;;
45103;SDS011;30865;51.288;4.572;2023-01-01T06:18:21;30.98;;;18.60;;
45103;SDS011;30865;51.288;4.572;2023-01-01T06:20:48;30.52;;;19.65;;
45103;SDS011;30865;51.288;4.572;2023-01-01T06:23:13;36.25;;;22.98;;
45103;SDS011;30865;51.288;4.572;2023-01-01T06:25:39;37.15;;;20.52;;
45103;SDS011;30865;51.288;4.572;2023-01-01T06:28:04;25.85;;;17.00;;
45103;SDS011;30865;51.288;4.572;2023-01-01T06:30:30;31.20;;;17.77;;
45103;SDS011;30865;51.288;4.572;2023-01-01T06:32:58;33.95;;;19.98;;
45103;SDS011;30865;51.288;4.572;2023-01-01T06:35:24;30.17;;;16.83;;
45103;SDS011;30865;51.288;4.572;2023-01-01T06:37:49;31.13;;;16.48;;
45103;SDS011;30865;51.288;4.572;2023-01-01T06:40:15;27.73;;;16.67;;
45103;SDS011;30865;51.288;4.572;2023-01-01T06:42:40;24.15;;;13.30;;
45103;SDS011;30865;51.288;4.572;2023-01-01T06:45:06;20.17;;;11.73;;
45103;SDS011;30865;51.288;4.572;2023-01-01T06:47:33;25.65;;;15.23;;
45103;SDS011;30865;51.288;4.572;2023-01-01T06:49:59;18.70;;;11.07;;
45103;SDS011;30865;51.288;4.572;2023-01-01T06:52:25;18.05;;;10.57;;
45103;SDS011;30865;51.288;4.572;2023-01-01T06:54:50;16.67;;;10.75;;
45103;SDS011;30865;51.288;4.572;2023-01-01T06:57:16;19.20;;;11.90;;
45103;SDS011;30865;51.288;4.572;2023-01-01T06:59:41;21.65;;;11.13;;
45103;SDS011;30865;51.288;4.572;2023-01-01T07:02:10;21.95;;;13.10;;
45103;SDS011;30865;51.288;4.572;2023-01-01T07:04:36;22.63;;;13.80;;
45103;SDS011;30865;51.288;4.572;2023-01-01T07:07:02;23.92;;;16.33;;
45103;SDS011;30865;51.288;4.572;2023-01-01T07:09:28;29.25;;;17.80;;
45103;SDS011;30865;51.288;4.572;2023-01-01T07:11:53;35.25;;;21.02;;
45103;SDS011;30865;51.288;4.572;2023-01-01T07:14:18;43.30;;;23.73;;
45103;SDS011;30865;51.288;4.572;2023-01-01T07:16:44;44.95;;;26.05;;
45103;SDS011;30865;51.288;4.572;2023-01-01T07:19:09;45.33;;;29.33;;
45103;SDS011;30865;51.288;4.572;2023-01-01T07:21:39;52.63;;;32.70;;
45103;SDS011;30865;51.288;4.572;2023-01-01T07:24:09;52.58;;;31.40;;
45103;SDS011;30865;51.288;4.572;2023-01-01T07:26:38;54.78;;;33.45;;
45103;SDS011;30865;51.288;4.572;2023-01-01T07:29:07;70.25;;;42.75;;
45103;SDS011;30865;51.288;4.572;2023-01-01T07:31:37;66.00;;;40.00;;
45103;SDS011;30865;51.288;4.572;2023-01-01T07:34:05;52.78;;;33.72;;
45103;SDS011;30865;51.288;4.572;2023-01-01T07:36:31;61.80;;;37.35;;
45103;SDS011;30865;51.288;4.572;2023-01-01T07:38:57;66.43;;;42.42;;
45103;SDS011;30865;51.288;4.572;2023-01-01T07:41:23;70.43;;;46.10;;
45103;SDS011;30865;51.288;4.572;2023-01-01T07:43:48;80.90;;;48.58;;
45103;SDS011;30865;51.288;4.572;2023-01-01T07:46:14;81.88;;;51.72;;
45103;SDS011;30865;51.288;4.572;2023-01-01T07:48:42;84.30;;;50.65;;
45103;SDS011;30865;51.288;4.572;2023-01-01T07:51:08;88.95;;;55.00;;
45103;SDS011;30865;51.288;4.572;2023-01-01T07:53:33;88.00;;;55.92;;
45103;SDS011;30865;51.288;4.572;2023-01-01T07:55:59;97.55;;;58.28;;
45103;SDS011;30865;51.288;4.572;2023-01-01T07:58:24;92.22;;;55.80;;
45103;SDS011;30865;51.288;4.572;2023-01-01T08:00:50;93.93;;;58.10;;
45103;SDS011;30865;51.288;4.572;2023-01-01T08:03:15;98.68;;;58.03;;
45103;SDS011;30865;51.288;4.572;2023-01-01T08:05:41;82.88;;;53.90;;
45103;SDS011;30865;51.288;4.572;2023-01-01T08:08:07;81.15;;;50.00;;
45103;SDS011;30865;51.288;4.572;2023-01-01T08:10:34;88.68;;;52.00;;
45103;SDS011;30865;51.288;4.572;2023-01-01T08:13:00;78.60;;;47.33;;
45103;SDS011;30865;51.288;4.572;2023-01-01T08:15:26;80.13;;;50.47;;
45103;SDS011;30865;51.288;4.572;2023-01-01T08:17:58;83.00;;;52.75;;
45103;SDS011;30865;51.288;4.572;2023-01-01T08:20:26;90.72;;;58.13;;
45103;SDS011;30865;51.288;4.572;2023-01-01T08:22:53;89.70;;;55.83;;
45103;SDS011;30865;51.288;4.572;2023-01-01T08:25:18;95.45;;;58.65;;
45103;SDS011;30865;51.288;4.572;2023-01-01T08:27:44;85.85;;;55.40;;
45103;SDS011;30865;51.288;4.572;2023-01-01T08:30:11;97.78;;;59.28;;
45103;SDS011;30865;51.288;4.572;2023-01-01T08:32:37;100.97;;;64.93;;
45103;SDS011;30865;51.288;4.572;2023-01-01T08:35:03;114.88;;;69.50;;
45103;SDS011;30865;51.288;4.572;2023-01-01T08:37:29;117.65;;;71.57;;
45103;SDS011;30865;51.288;4.572;2023-01-01T08:39:54;115.07;;;70.70;;
45103;SDS011;30865;51.288;4.572;2023-01-01T08:42:20;119.80;;;73.57;;
45103;SDS011;30865;51.288;4.572;2023-01-01T08:44:45;124.50;;;75.10;;
45103;SDS011;30865;51.288;4.572;2023-01-01T08:47:24;114.82;;;72.53;;
45103;SDS011;30865;51.288;4.572;2023-01-01T08:49:51;107.97;;;64.13;;
45103;SDS011;30865;51.288;4.572;2023-01-01T08:52:18;97.03;;;60.45;;
45103;SDS011;30865;51.288;4.572;2023-01-01T08:54:44;89.78;;;58.15;;
45103;SDS011;30865;51.288;4.572;2023-01-01T08:57:09;90.03;;;55.67;;
45103;SDS011;30865;51.288;4.572;2023-01-01T08:59:35;88.32;;;54.50;;
45103;SDS011;30865;51.288;4.572;2023-01-01T09:02:01;87.95;;;53.67;;
45103;SDS011;30865;51.288;4.572;2023-01-01T09:04:27;68.65;;;44.17;;
45103;SDS011;30865;51.288;4.572;2023-01-01T09:06:52;66.60;;;40.70;;
45103;SDS011;30865;51.288;4.572;2023-01-01T09:09:18;65.85;;;42.70;;
45103;SDS011;30865;51.288;4.572;2023-01-01T09:11:50;72.85;;;44.70;;
45103;SDS011;30865;51.288;4.572;2023-01-01T09:14:19;67.32;;;44.13;;
45103;SDS011;30865;51.288;4.572;2023-01-01T09:16:45;69.65;;;44.72;;
45103;SDS011;30865;51.288;4.572;2023-01-01T09:19:11;63.33;;;39.22;;
45103;SDS011;30865;51.288;4.572;2023-01-01T09:21:37;68.72;;;43.55;;
45103;SDS011;30865;51.288;4.572;2023-01-01T09:24:02;74.13;;;47.75;;
45103;SDS011;30865;51.288;4.572;2023-01-01T09:26:28;73.53;;;45.80;;
45103;SDS011;30865;51.288;4.572;2023-01-01T09:28:54;68.18;;;44.72;;
45103;SDS011;30865;51.288;4.572;2023-01-01T09:31:19;68.70;;;45.22;;
45103;SDS011;30865;51.288;4.572;2023-01-01T09:33:44;66.40;;;42.50;;
45103;SDS011;30865;51.288;4.572;2023-01-01T09:38:48;73.47;;;44.17;;
45103;SDS011;30865;51.288;4.572;2023-01-01T09:44:23;65.43;;;42.50;;
45103;SDS011;30865;51.288;4.572;2023-01-01T09:47:10;64.05;;;41.42;;
45103;SDS011;30865;51.288;4.572;2023-01-01T09:50:10;57.95;;;38.05;;
45103;SDS011;30865;51.288;4.572;2023-01-01T09:52:54;63.53;;;38.65;;
45103;SDS011;30865;51.288;4.572;2023-01-01T09:56:03;57.25;;;36.92;;
45103;SDS011;30865;51.288;4.572;2023-01-01T09:58:15;58.67;;;39.47;;
45103;SDS011;30865;51.288;4.572;2023-01-01T10:00:45;62.70;;;41.38;;
45103;SDS011;30865;51.288;4.572;2023-01-01T10:03:18;55.90;;;35.07;;
45103;SDS011;30865;51.288;4.572;2023-01-01T10:12:05;52.10;;;34.33;;
45103;SDS011;30865;51.288;4.572;2023-01-01T10:14:44;60.53;;;38.08;;
45103;SDS011;30865;51.288;4.572;2023-01-01T10:17:16;53.08;;;36.42;;
45103;SDS011;30865;51.288;4.572;2023-01-01T10:19:49;59.22;;;39.10;;
45103;SDS011;30865;51.288;4.572;2023-01-01T10:22:19;60.72;;;38.60;;
45103;SDS011;30865;51.288;4.572;2023-01-01T10:24:49;65.90;;;43.10;;
45103;SDS011;30865;51.288;4.572;2023-01-01T10:27:30;59.97;;;40.25;;
45103;SDS011;30865;51.288;4.572;2023-01-01T10:30:01;59.33;;;39.53;;
45103;SDS011;30865;51.288;4.572;2023-01-01T10:32:31;53.20;;;34.88;;
45103;SDS011;30865;51.288;4.572;2023-01-01T10:34:58;57.63;;;35.50;;
45103;SDS011;30865;51.288;4.572;2023-01-01T10:37:27;52.13;;;36.20;;
45103;SDS011;30865;51.288;4.572;2023-01-01T10:39:59;54.22;;;34.17;;
45103;SDS011;30865;51.288;4.572;2023-01-01T10:44:55;52.15;;;34.30;;
45103;SDS011;30865;51.288;4.572;2023-01-01T10:47:27;42.97;;;31.35;;
45103;SDS011;30865;51.288;4.572;2023-01-01T10:49:58;46.92;;;31.55;;
45103;SDS011;30865;51.288;4.572;2023-01-01T10:54:51;38.63;;;25.83;;
45103;SDS011;30865;51.288;4.572;2023-01-01T10:57:28;37.90;;;25.67;;
45103;SDS011;30865;51.288;4.572;2023-01-01T11:00:30;34.67;;;23.90;;
45103;SDS011;30865;51.288;4.572;2023-01-01T11:08:31;31.50;;;19.58;;
45103;SDS011;30865;51.288;4.572;2023-01-01T11:10:59;30.55;;;20.92;;
45103;SDS011;30865;51.288;4.572;2023-01-01T11:13:26;26.30;;;17.98;;
45103;SDS011;30865;51.288;4.572;2023-01-01T11:15:53;24.35;;;16.65;;
45103;SDS011;30865;51.288;4.572;2023-01-01T11:18:24;28.58;;;17.35;;
45103;SDS011;30865;51.288;4.572;2023-01-01T11:21:00;23.48;;;16.33;;
45103;SDS011;30865;51.288;4.572;2023-01-01T11:23:29;27.45;;;16.13;;
45103;SDS011;30865;51.288;4.572;2023-01-01T11:26:21;24.05;;;15.63;;
45103;SDS011;30865;51.288;4.572;2023-01-01T11:28:58;23.75;;;14.25;;
45103;SDS011;30865;51.288;4.572;2023-01-01T11:31:29;19.95;;;13.43;;
45103;SDS011;30865;51.288;4.572;2023-01-01T11:34:03;18.98;;;13.73;;
45103;SDS011;30865;51.288;4.572;2023-01-01T11:36:40;17.20;;;11.77;;
45103;SDS011;30865;51.288;4.572;2023-01-01T11:39:23;14.75;;;10.07;;
45103;SDS011;30865;51.288;4.572;2023-01-01T11:41:51;18.13;;;10.57;;
45103;SDS011;30865;51.288;4.572;2023-01-01T11:44:28;13.52;;;9.20;;
45103;SDS011;30865;51.288;4.572;2023-01-01T11:49:59;16.65;;;10.07;;
45103;SDS011;30865;51.288;4.572;2023-01-01T11:55:08;13.68;;;8.32;;
45103;SDS011;30865;51.288;4.572;2023-01-01T11:57:39;12.95;;;8.18;;
45103;SDS011;30865;51.288;4.572;2023-01-01T12:00:12;11.73;;;8.52;;
45103;SDS011;30865;51.288;4.572;2023-01-01T12:02:42;11.93;;;7.87;;
45103;SDS011;30865;51.288;4.572;2023-01-01T12:05:25;15.93;;;9.20;;
45103;SDS011;30865;51.288;4.572;2023-01-01T12:08:18;13.02;;;8.48;;
45103;SDS011;30865;51.288;4.572;2023-01-01T12:11:09;11.18;;;7.30;;
45103;SDS011;30865;51.288;4.572;2023-01-01T12:13:55;10.38;;;5.85;;
45103;SDS011;30865;51.288;4.572;2023-01-01T12:16:48;10.38;;;5.03;;
45103;SDS011;30865;51.288;4.572;2023-01-01T12:21:53;8.50;;;4.72;;
45103;SDS011;30865;51.288;4.572;2023-01-01T12:24:22;7.45;;;4.40;;
45103;SDS011;30865;51.288;4.572;2023-01-01T12:26:56;7.93;;;4.70;;
45103;SDS011;30865;51.288;4.572;2023-01-01T12:32:25;6.57;;;3.30;;
45103;SDS011;30865;51.288;4.572;2023-01-01T12:52:13;3.67;;;2.30;;
45103;SDS011;30865;51.288;4.572;2023-01-01T12:57:27;4.75;;;2.95;;
45103;SDS011;30865;51.288;4.572;2023-01-01T12:59:56;4.45;;;2.53;;
45103;SDS011;30865;51.288;4.572;2023-01-01T13:02:26;7.15;;;3.30;;
45103;SDS011;30865;51.288;4.572;2023-01-01T13:04:56;6.47;;;2.55;;
45103;SDS011;30865;51.288;4.572;2023-01-01T13:07:34;5.93;;;2.22;;
45103;SDS011;30865;51.288;4.572;2023-01-01T13:10:10;4.78;;;1.83;;
45103;SDS011;30865;51.288;4.572;2023-01-01T13:12:46;3.33;;;2.20;;
45103;SDS011;30865;51.288;4.572;2023-01-01T13:20:38;4.13;;;2.20;;
45103;SDS011;30865;51.288;4.572;2023-01-01T13:23:05;5.35;;;2.40;;
45103;SDS011;30865;51.288;4.572;2023-01-01T13:26:13;5.55;;;2.22;;
45103;SDS011;30865;51.288;4.572;2023-01-01T13:50:24;7.57;;;4.18;;
45103;SDS011;30865;51.288;4.572;2023-01-01T13:55:55;11.60;;;5.22;;
45103;SDS011;30865;51.288;4.572;2023-01-01T13:58:53;10.32;;;5.75;;
45103;SDS011;30865;51.288;4.572;2023-01-01T14:01:39;7.70;;;5.75;;
45103;SDS011;30865;51.288;4.572;2023-01-01T14:06:54;10.77;;;6.10;;
45103;SDS011;30865;51.288;4.572;2023-01-01T14:09:21;13.48;;;5.38;;
45103;SDS011;30865;51.288;4.572;2023-01-01T14:11:49;13.20;;;6.22;;
45103;SDS011;30865;51.288;4.572;2023-01-01T14:14:24;10.18;;;5.85;;
45103;SDS011;30865;51.288;4.572;2023-01-01T14:16:57;11.60;;;6.18;;
45103;SDS011;30865;51.288;4.572;2023-01-01T14:19:25;12.20;;;6.45;;
45103;SDS011;30865;51.288;4.572;2023-01-01T14:21:52;10.40;;;6.07;;
45103;SDS011;30865;51.288;4.572;2023-01-01T14:24:19;11.48;;;6.80;;
45103;SDS011;30865;51.288;4.572;2023-01-01T14:26:46;15.13;;;6.93;;
45103;SDS011;30865;51.288;4.572;2023-01-01T14:29:17;13.75;;;5.90;;
45103;SDS011;30865;51.288;4.572;2023-01-01T14:31:50;8.90;;;5.95;;
45103;SDS011;30865;51.288;4.572;2023-01-01T14:34:23;12.93;;;5.63;;
45103;SDS011;30865;51.288;4.572;2023-01-01T14:36:55;11.10;;;5.70;;
45103;SDS011;30865;51.288;4.572;2023-01-01T14:39:31;9.15;;;5.60;;
45103;SDS011;30865;51.288;4.572;2023-01-01T14:42:10;9.90;;;5.95;;
45103;SDS011;30865;51.288;4.572;2023-01-01T14:44:40;11.68;;;6.22;;
45103;SDS011;30865;51.288;4.572;2023-01-01T14:47:28;13.07;;;6.07;;
45103;SDS011;30865;51.288;4.572;2023-01-01T14:49:59;7.97;;;5.70;;
45103;SDS011;30865;51.288;4.572;2023-01-01T14:52:38;12.85;;;6.18;;
45103;SDS011;30865;51.288;4.572;2023-01-01T14:55:04;9.48;;;5.53;;
45103;SDS011;30865;51.288;4.572;2023-01-01T14:57:32;12.88;;;6.68;;
45103;SDS011;30865;51.288;4.572;2023-01-01T15:00:00;9.80;;;5.35;;
45103;SDS011;30865;51.288;4.572;2023-01-01T15:02:28;10.43;;;5.72;;
45103;SDS011;30865;51.288;4.572;2023-01-01T15:04:56;12.52;;;5.50;;
45103;SDS011;30865;51.288;4.572;2023-01-01T15:07:23;10.27;;;5.68;;
45103;SDS011;30865;51.288;4.572;2023-01-01T15:09:53;9.55;;;5.80;;
45103;SDS011;30865;51.288;4.572;2023-01-01T15:12:21;9.88;;;6.05;;
45103;SDS011;30865;51.288;4.572;2023-01-01T15:14:48;10.63;;;5.95;;
45103;SDS011;30865;51.288;4.572;2023-01-01T15:17:17;12.65;;;5.28;;
45103;SDS011;30865;51.288;4.572;2023-01-01T15:19:45;10.95;;;4.40;;
45103;SDS011;30865;51.288;4.572;2023-01-01T15:22:28;10.27;;;5.00;;
45103;SDS011;30865;51.288;4.572;2023-01-01T15:24:55;6.95;;;4.65;;
45103;SDS011;30865;51.288;4.572;2023-01-01T15:27:29;8.38;;;4.85;;
45103;SDS011;30865;51.288;4.572;2023-01-01T15:29:58;7.72;;;4.72;;
45103;SDS011;30865;51.288;4.572;2023-01-01T15:32:28;9.55;;;4.30;;
45103;SDS011;30865;51.288;4.572;2023-01-01T15:34:56;14.15;;;5.38;;
45103;SDS011;30865;51.288;4.572;2023-01-01T15:42:39;8.30;;;4.72;;
45103;SDS011;30865;51.288;4.572;2023-01-01T15:47:38;9.30;;;5.03;;
45103;SDS011;30865;51.288;4.572;2023-01-01T15:50:08;10.27;;;5.47;;
45103;SDS011;30865;51.288;4.572;2023-01-01T15:52:34;15.38;;;5.63;;
45103;SDS011;30865;51.288;4.572;2023-01-01T15:55:01;11.18;;;6.13;;
45103;SDS011;30865;51.288;4.572;2023-01-01T15:57:27;9.43;;;5.20;;
45103;SDS011;30865;51.288;4.572;2023-01-01T15:59:52;10.40;;;5.47;;
45103;SDS011;30865;51.288;4.572;2023-01-01T16:02:20;10.13;;;5.10;;
45103;SDS011;30865;51.288;4.572;2023-01-01T16:04:55;9.00;;;4.75;;
45103;SDS011;30865;51.288;4.572;2023-01-01T16:07:22;11.07;;;5.60;;
45103;SDS011;30865;51.288;4.572;2023-01-01T16:09:50;9.88;;;5.90;;
45103;SDS011;30865;51.288;4.572;2023-01-01T16:12:18;12.27;;;6.03;;
45103;SDS011;30865;51.288;4.572;2023-01-01T16:14:43;11.60;;;6.63;;
45103;SDS011;30865;51.288;4.572;2023-01-01T16:17:14;11.48;;;6.32;;
45103;SDS011;30865;51.288;4.572;2023-01-01T16:19:41;12.35;;;7.18;;
45103;SDS011;30865;51.288;4.572;2023-01-01T16:22:10;14.07;;;7.55;;
45103;SDS011;30865;51.288;4.572;2023-01-01T16:24:41;12.23;;;7.78;;
45103;SDS011;30865;51.288;4.572;2023-01-01T16:27:07;12.88;;;7.25;;
45103;SDS011;30865;51.288;4.572;2023-01-01T16:29:33;13.75;;;8.48;;
45103;SDS011;30865;51.288;4.572;2023-01-01T16:31:59;16.98;;;8.38;;